createdAt,value
2023-08-22T00:00:55.850Z,48.47
2023-08-22T00:03:22.555Z,48.40
2023-08-22T00:05:49.341Z,48.16
2023-08-22T00:08:17.499Z,48.46
2023-08-22T00:10:44.205Z,47.92
2023-08-22T00:13:10.814Z,47.75
2023-08-22T00:15:37.557Z,47.69
2023-08-22T00:18:13.098Z,47.57
2023-08-22T00:20:50.420Z,47.71
2023-08-22T00:23:17.788Z,47.70
2023-08-22T00:25:44.407Z,47.91
2023-08-22T00:28:11.930Z,47.94
2023-08-22T00:30:39.899Z,48.90
2023-08-22T00:33:19.956Z,47.87
2023-08-22T00:35:47.250Z,48.04
2023-08-22T00:38:13.952Z,48.25
2023-08-22T00:40:41.205Z,48.20
2023-08-22T00:43:07.879Z,48.32
2023-08-22T00:45:42.378Z,48.90
2023-08-22T00:48:18.244Z,48.98
2023-08-22T00:50:52.907Z,48.95
2023-08-22T00:53:19.639Z,48.78
2023-08-22T00:55:46.478Z,48.94
2023-08-22T00:58:15.211Z,49.19
2023-08-22T01:00:42.219Z,49.36
2023-08-22T01:03:13.098Z,49.66
2023-08-22T01:05:48.962Z,49.70
2023-08-22T01:08:25.766Z,49.55
2023-08-22T01:11:00.268Z,49.53
2023-08-22T01:13:34.137Z,50.01
2023-08-22T01:16:02.411Z,49.43
2023-08-22T01:18:30.119Z,49.68
2023-08-22T01:21:05.613Z,49.40
2023-08-22T01:23:32.539Z,49.80
2023-08-22T01:25:59.645Z,49.26
2023-08-22T01:28:29.941Z,49.24
2023-08-22T01:31:12.551Z,49.75
2023-08-22T01:33:43.999Z,49.16
2023-08-22T01:36:13.144Z,49.82
2023-08-22T01:38:49.010Z,49.66
2023-08-22T01:41:16.825Z,49.90
2023-08-22T01:43:44.396Z,49.26
2023-08-22T01:46:11.093Z,49.74
2023-08-22T01:48:38.264Z,49.74
2023-08-22T01:51:08.075Z,49.69
2023-08-22T01:53:34.730Z,49.48
2023-08-22T01:56:02.423Z,49.15
2023-08-22T01:58:31.269Z,49.11
2023-08-22T02:00:58.817Z,49.72
2023-08-22T02:03:25.732Z,49.30
2023-08-22T02:05:52.428Z,49.30
2023-08-22T02:08:19.013Z,49.00
2023-08-22T02:10:45.633Z,49.18
2023-08-22T02:13:14.631Z,49.51
2023-08-22T02:15:41.841Z,49.42
2023-08-22T02:18:08.504Z,49.34
2023-08-22T02:20:35.239Z,49.36
2023-08-22T02:23:03.746Z,51.53
2023-08-22T02:25:37.136Z,52.16
2023-08-22T02:28:04.821Z,49.91
2023-08-22T02:30:31.458Z,49.52
2023-08-22T02:33:01.826Z,50.15
2023-08-22T02:35:28.494Z,49.98
2023-08-22T02:37:56.811Z,49.83
2023-08-22T02:40:30.026Z,50.18
2023-08-22T02:42:56.954Z,50.27
2023-08-22T02:45:23.605Z,50.48
2023-08-22T02:47:52.462Z,50.05
2023-08-22T02:50:19.897Z,50.09
2023-08-22T02:52:51.474Z,50.43
2023-08-22T02:55:19.941Z,50.18
2023-08-22T02:57:51.544Z,49.70
2023-08-22T03:00:19.520Z,49.84
2023-08-22T03:02:46.261Z,50.27
2023-08-22T03:05:20.737Z,50.41
2023-08-22T03:07:52.679Z,50.40
2023-08-22T03:10:21.092Z,50.31
2023-08-22T03:12:51.628Z,50.56
2023-08-22T03:15:27.368Z,50.74
2023-08-22T03:17:54.005Z,50.67
2023-08-22T03:20:20.747Z,50.92
2023-08-22T03:22:47.300Z,50.54
2023-08-22T03:25:19.037Z,50.80
2023-08-22T03:27:45.631Z,50.81
2023-08-22T03:30:12.538Z,50.35
2023-08-22T03:32:49.644Z,50.69
2023-08-22T03:35:16.309Z,50.71
2023-08-22T03:37:43.476Z,50.42
2023-08-22T03:40:21.377Z,50.35
2023-08-22T03:42:53.376Z,50.56
2023-08-22T03:45:20.001Z,50.32
2023-08-22T03:47:46.729Z,50.26
2023-08-22T03:50:17.717Z,50.51
2023-08-22T03:52:44.397Z,50.06
2023-08-22T03:55:19.146Z,50.95
2023-08-22T03:57:45.797Z,50.56
2023-08-22T04:00:13.224Z,50.57
2023-08-22T04:02:40.023Z,50.86
2023-08-22T04:05:07.157Z,50.98
2023-08-22T04:07:36.407Z,51.12
2023-08-22T04:10:04.004Z,51.51
2023-08-22T04:12:30.642Z,51.71
2023-08-22T04:14:57.654Z,52.37
2023-08-22T04:17:24.445Z,51.32
2023-08-22T04:19:52.218Z,50.90
2023-08-22T04:22:20.417Z,52.29
2023-08-22T04:24:47.046Z,54.00
2023-08-22T04:27:13.918Z,54.78
2023-08-22T04:29:41.118Z,53.07
2023-08-22T04:32:10.154Z,50.48
2023-08-22T04:34:36.717Z,51.93
2023-08-22T04:37:05.541Z,51.02
2023-08-22T04:39:32.264Z,53.07
2023-08-22T04:41:59.076Z,52.19
2023-08-22T04:44:27.174Z,52.85
2023-08-22T04:46:53.830Z,50.82
2023-08-22T04:49:20.515Z,50.96
2023-08-22T04:51:47.246Z,51.57
2023-08-22T04:54:14.164Z,51.73
2023-08-22T04:56:40.734Z,51.97
2023-08-22T04:59:07.715Z,52.55
2023-08-22T05:01:34.610Z,52.67
2023-08-22T05:04:01.521Z,52.95
2023-08-22T05:06:28.227Z,53.37
2023-08-22T05:08:54.944Z,53.82
2023-08-22T05:11:22.925Z,53.45
2023-08-22T05:13:49.520Z,54.00
2023-08-22T05:16:16.264Z,54.51
2023-08-22T05:18:42.938Z,55.16
2023-08-22T05:21:11.456Z,55.28
2023-08-22T05:23:41.632Z,54.83
2023-08-22T05:26:12.121Z,54.78
2023-08-22T05:28:38.713Z,55.27
2023-08-22T05:31:05.265Z,55.17
2023-08-22T05:33:31.903Z,55.08
2023-08-22T05:35:58.508Z,55.40
2023-08-22T05:38:28.319Z,55.46
2023-08-22T05:40:54.953Z,54.97
2023-08-22T05:43:21.579Z,54.85
2023-08-22T05:45:48.277Z,54.83
2023-08-22T05:48:17.881Z,54.53
2023-08-22T05:50:44.653Z,53.71
2023-08-22T05:53:15.556Z,54.58
2023-08-22T05:55:44.278Z,52.99
2023-08-22T05:58:11.169Z,52.60
2023-08-22T06:00:38.809Z,53.10
2023-08-22T06:03:09.279Z,51.92
2023-08-22T06:05:36.725Z,51.24
2023-08-22T06:08:08.576Z,50.67
2023-08-22T06:10:35.184Z,50.84
2023-08-22T06:13:06.995Z,50.87
2023-08-22T06:15:36.860Z,50.20
2023-08-22T06:18:03.711Z,50.72
2023-08-22T06:20:30.591Z,50.53
2023-08-22T06:22:57.378Z,50.43
2023-08-22T06:25:29.030Z,49.98
2023-08-22T06:27:57.870Z,49.52
2023-08-22T06:30:24.877Z,49.72
2023-08-22T06:33:00.428Z,50.12
2023-08-22T06:35:29.436Z,50.22
2023-08-22T06:37:58.260Z,49.60
2023-08-22T06:40:24.888Z,49.50
2023-08-22T06:42:57.776Z,49.50
2023-08-22T06:45:26.019Z,49.11
2023-08-22T06:47:52.817Z,49.54
2023-08-22T06:50:20.023Z,48.92
2023-08-22T06:52:47.846Z,49.45
2023-08-22T06:55:15.059Z,48.52
2023-08-22T06:57:51.560Z,48.02
2023-08-22T07:00:19.357Z,47.85
2023-08-22T07:02:47.598Z,47.98
2023-08-22T07:05:16.338Z,47.95
2023-08-22T07:07:45.545Z,48.04
2023-08-22T07:10:14.945Z,47.90
2023-08-22T07:12:44.163Z,47.61
2023-08-22T07:15:11.596Z,47.34
2023-08-22T07:17:39.254Z,47.86
2023-08-22T07:20:08.283Z,46.73
2023-08-22T07:22:34.945Z,46.49
2023-08-22T07:25:01.717Z,46.91
2023-08-22T07:27:28.602Z,47.40
2023-08-22T07:29:55.639Z,46.58
2023-08-22T07:32:27.401Z,47.03
2023-08-22T07:34:54.758Z,46.24
2023-08-22T07:37:21.502Z,46.39
2023-08-22T07:39:48.095Z,46.61
2023-08-22T07:42:26.228Z,46.17
2023-08-22T07:44:52.819Z,46.34
2023-08-22T07:47:21.051Z,45.35
2023-08-22T07:49:51.874Z,44.86
2023-08-22T07:52:18.622Z,45.88
2023-08-22T07:54:46.943Z,45.83
2023-08-22T07:57:18.816Z,45.65
2023-08-22T07:59:51.465Z,44.48
2023-08-22T08:02:20.975Z,45.38
2023-08-22T08:05:42.646Z,46.61
2023-08-22T08:09:29.384Z,47.09
2023-08-22T08:18:50.507Z,45.99
2023-08-22T08:21:43.278Z,45.25
2023-08-22T08:24:09.925Z,45.84
2023-08-22T08:26:36.620Z,45.62
2023-08-22T08:29:08.179Z,45.11
2023-08-22T08:31:41.110Z,45.47
2023-08-22T08:34:07.898Z,45.68
2023-08-22T08:36:38.658Z,45.69
2023-08-22T08:39:05.246Z,46.34
2023-08-22T08:41:37.430Z,45.61
2023-08-22T08:44:10.062Z,45.50
2023-08-22T08:46:37.556Z,45.95
2023-08-22T08:49:06.815Z,45.88
2023-08-22T08:51:34.540Z,45.29
2023-08-22T08:54:05.897Z,44.98
2023-08-22T08:56:32.614Z,46.38
2023-08-22T08:59:02.966Z,45.19
2023-08-22T09:01:31.191Z,45.68
2023-08-22T09:03:58.151Z,45.95
2023-08-22T09:06:25.687Z,45.97
2023-08-22T09:09:05.815Z,45.42
2023-08-22T09:11:36.045Z,45.13
2023-08-22T09:14:06.192Z,46.60
2023-08-22T09:16:33.462Z,44.20
2023-08-22T09:19:01.226Z,45.26
2023-08-22T09:21:32.658Z,45.69
2023-08-22T09:24:09.765Z,44.70
2023-08-22T09:26:40.782Z,44.52
2023-08-22T09:29:08.284Z,43.79
2023-08-22T09:31:36.924Z,43.21
2023-08-22T09:34:11.965Z,43.13
2023-08-22T09:36:50.626Z,42.76
2023-08-22T09:39:18.853Z,42.46
2023-08-22T09:41:45.572Z,41.92
2023-08-22T09:44:26.201Z,43.42
2023-08-22T09:47:10.081Z,43.26
2023-08-22T09:49:53.658Z,44.06
2023-08-22T09:52:24.224Z,43.93
2023-08-22T09:55:04.408Z,44.07
2023-08-22T09:57:45.401Z,43.29
2023-08-22T10:00:19.227Z,43.89
2023-08-22T10:02:55.016Z,43.66
2023-08-22T10:05:36.409Z,44.10
2023-08-22T10:08:04.450Z,43.73
2023-08-22T10:10:44.184Z,42.20
2023-08-22T10:13:19.048Z,41.36
2023-08-22T10:15:48.269Z,41.65
2023-08-22T10:18:19.287Z,42.08
2023-08-22T10:20:46.289Z,42.43
2023-08-22T10:23:13.084Z,43.28
2023-08-22T10:25:59.330Z,42.76
2023-08-22T10:28:36.487Z,42.00
2023-08-22T10:31:08.623Z,42.24
2023-08-22T10:33:41.738Z,41.19
2023-08-22T10:36:29.715Z,40.20
2023-08-22T10:39:11.077Z,39.74
2023-08-22T10:42:06.380Z,39.66
2023-08-22T10:44:41.265Z,40.26
2023-08-22T10:47:21.209Z,40.18
2023-08-22T10:52:42.686Z,39.85
2023-08-22T10:55:16.130Z,40.66
2023-08-22T10:57:46.807Z,40.58
2023-08-22T11:00:23.807Z,40.85
2023-08-22T11:02:57.297Z,38.72
2023-08-22T11:05:24.632Z,40.34
2023-08-22T11:07:53.491Z,39.09
2023-08-22T11:10:24.987Z,38.33
2023-08-22T11:13:04.131Z,39.35
2023-08-22T11:15:38.137Z,37.97
2023-08-22T11:18:15.148Z,38.44
2023-08-22T11:20:50.076Z,38.12
2023-08-22T11:23:18.213Z,38.38
2023-08-22T11:25:44.831Z,37.83
2023-08-22T11:28:30.389Z,37.99
2023-08-22T11:31:08.850Z,37.77
2023-08-22T11:33:56.018Z,38.19
2023-08-22T11:40:16.553Z,39.62
2023-08-22T11:42:43.682Z,40.02
2023-08-22T11:45:14.743Z,39.14
2023-08-22T11:47:47.617Z,39.00
2023-08-22T11:50:19.725Z,39.74
2023-08-22T11:52:49.009Z,39.92
2023-08-22T11:55:18.218Z,40.25
2023-08-22T11:57:47.512Z,40.16
2023-08-22T12:00:15.488Z,40.82
2023-08-22T12:02:52.936Z,40.34
2023-08-22T12:05:31.594Z,40.92
2023-08-22T12:07:59.689Z,40.86
2023-08-22T12:10:26.559Z,41.66
2023-08-22T12:12:53.897Z,41.72
2023-08-22T12:15:20.592Z,40.35
2023-08-22T12:17:48.168Z,41.30
2023-08-22T12:20:15.074Z,40.66
2023-08-22T12:22:41.957Z,41.15
2023-08-22T12:25:08.911Z,40.44
2023-08-22T12:27:37.023Z,41.33
2023-08-22T12:30:04.193Z,41.54
2023-08-22T12:32:31.992Z,41.09
2023-08-22T12:35:01.394Z,41.38
2023-08-22T12:37:31.595Z,41.53
2023-08-22T12:40:00.806Z,40.61
2023-08-22T12:42:27.647Z,41.03
2023-08-22T12:44:54.282Z,40.54
2023-08-22T12:47:20.983Z,40.40
2023-08-22T12:49:47.813Z,40.34
2023-08-22T12:52:14.753Z,40.19
2023-08-22T12:54:41.484Z,39.93
2023-08-22T12:57:09.686Z,40.14
2023-08-22T12:59:37.306Z,39.41
2023-08-22T13:02:04.294Z,39.27
2023-08-22T13:04:34.312Z,39.32
2023-08-22T13:07:04.359Z,38.26
2023-08-22T13:09:34.621Z,38.77
2023-08-22T13:12:01.336Z,37.83
2023-08-22T13:14:28.322Z,38.63
2023-08-22T13:16:56.378Z,38.33
2023-08-22T13:19:28.636Z,39.00
2023-08-22T13:21:55.282Z,39.34
2023-08-22T13:24:22.544Z,39.33
2023-08-22T13:26:49.239Z,39.14
2023-08-22T13:29:17.207Z,38.89
2023-08-22T13:31:44.064Z,39.82
2023-08-22T13:34:10.740Z,40.20
2023-08-22T13:36:37.485Z,40.48
2023-08-22T13:39:05.692Z,41.31
2023-08-22T13:41:32.660Z,41.78
2023-08-22T13:43:59.841Z,41.32
2023-08-22T13:46:30.028Z,41.77
2023-08-22T13:48:57.576Z,41.17
2023-08-22T13:51:24.500Z,40.51
2023-08-22T13:53:51.254Z,40.85
2023-08-22T13:56:18.076Z,40.77
2023-08-22T13:58:44.907Z,40.80
2023-08-22T14:01:11.651Z,41.47
2023-08-22T14:03:38.406Z,41.72
2023-08-22T14:06:07.484Z,42.23
2023-08-22T14:08:35.895Z,42.57
2023-08-22T14:11:02.735Z,41.43
2023-08-22T14:13:29.443Z,41.60
2023-08-22T14:15:56.286Z,41.25
2023-08-22T14:18:23.171Z,41.15
2023-08-22T14:20:49.983Z,41.33
2023-08-22T14:23:16.739Z,40.76
2023-08-22T14:25:46.585Z,40.56
2023-08-22T14:28:16.149Z,40.58
2023-08-22T14:30:42.817Z,40.58
2023-08-22T14:33:11.993Z,40.83
2023-08-22T14:35:42.827Z,42.10
2023-08-22T14:38:12.230Z,42.04
2023-08-22T14:40:39.117Z,42.66
2023-08-22T14:43:06.010Z,42.96
2023-08-22T14:45:36.692Z,42.65
2023-08-22T14:48:17.777Z,43.18
2023-08-22T14:50:46.415Z,42.71
2023-08-22T14:53:14.933Z,41.99
2023-08-22T14:56:00.516Z,42.58
2023-08-22T14:58:48.182Z,42.92
2023-08-22T15:01:18.676Z,42.69
2023-08-22T15:03:48.292Z,42.84
2023-08-22T15:06:15.194Z,42.86
2023-08-22T15:08:45.466Z,42.74
2023-08-22T15:11:12.519Z,43.35
2023-08-22T15:13:43.685Z,43.26
2023-08-22T15:16:11.083Z,42.73
2023-08-22T15:18:39.411Z,42.12
2023-08-22T15:21:09.231Z,42.97
2023-08-22T15:23:39.536Z,43.13
2023-08-22T15:26:06.529Z,42.55
2023-08-22T15:28:33.374Z,42.97
2023-08-22T15:31:00.165Z,43.05
2023-08-22T15:33:29.070Z,43.33
2023-08-22T15:36:02.086Z,43.17
2023-08-22T15:38:33.558Z,43.31
2023-08-22T15:41:02.179Z,43.45
2023-08-22T15:43:31.108Z,43.07
2023-08-22T15:45:58.067Z,42.89
2023-08-22T15:48:28.362Z,42.94
2023-08-22T15:50:58.800Z,43.42
2023-08-22T15:53:34.003Z,43.69
2023-08-22T15:56:07.129Z,43.38
2023-08-22T15:58:34.219Z,42.67
2023-08-22T16:01:00.976Z,43.64
2023-08-22T16:03:27.877Z,43.13
2023-08-22T16:06:00.662Z,43.69
2023-08-22T16:08:30.843Z,43.60
2023-08-22T16:11:01.342Z,43.15
2023-08-22T16:13:31.151Z,42.59
2023-08-22T16:15:58.375Z,43.57
2023-08-22T16:18:25.292Z,43.01
2023-08-22T16:20:53.266Z,42.72
2023-08-22T16:23:22.912Z,43.37
2023-08-22T16:25:51.000Z,43.24
2023-08-22T16:28:23.630Z,43.42
2023-08-22T16:30:51.564Z,43.42
2023-08-22T16:33:18.944Z,43.11
2023-08-22T16:35:52.874Z,42.60
2023-08-22T16:38:21.052Z,43.42
2023-08-22T16:40:47.786Z,44.04
2023-08-22T16:43:14.687Z,43.06
2023-08-22T16:45:42.863Z,43.25
2023-08-22T16:48:09.824Z,43.18
2023-08-22T16:50:49.880Z,43.39
2023-08-22T16:53:17.004Z,43.34
2023-08-22T16:55:44.579Z,43.31
2023-08-22T16:58:11.691Z,43.70
2023-08-22T17:03:20.448Z,43.29
2023-08-22T17:05:47.527Z,43.29
2023-08-22T17:08:18.956Z,43.69
2023-08-22T17:10:46.497Z,43.97
2023-08-22T17:13:13.489Z,43.54
2023-08-22T17:15:45.327Z,43.96
2023-08-22T17:18:12.739Z,43.53
2023-08-22T17:20:49.776Z,44.02
2023-08-22T17:23:22.682Z,44.68
2023-08-22T17:25:50.491Z,45.08
2023-08-22T17:28:21.284Z,45.74
2023-08-22T17:30:49.549Z,45.78
2023-08-22T17:33:16.582Z,45.28
2023-08-22T17:35:51.084Z,46.28
2023-08-22T17:38:18.677Z,46.15
2023-08-22T17:40:45.459Z,45.87
2023-08-22T17:43:12.480Z,46.32
2023-08-22T17:45:39.352Z,46.64
2023-08-22T17:48:09.302Z,46.69
2023-08-22T17:50:38.233Z,46.30
2023-08-22T17:53:06.433Z,47.05
2023-08-22T17:55:34.954Z,47.30
2023-08-22T17:58:04.898Z,46.70
2023-08-22T18:00:34.452Z,46.87
2023-08-22T18:03:01.513Z,47.08
2023-08-22T18:05:28.449Z,47.08
2023-08-22T18:07:55.201Z,47.11
2023-08-22T18:10:24.798Z,46.81
2023-08-22T18:12:51.848Z,47.15
2023-08-22T18:15:18.649Z,47.47
2023-08-22T18:17:45.785Z,47.26
2023-08-22T18:20:21.055Z,47.08
2023-08-22T18:22:50.464Z,47.18
2023-08-22T18:25:17.726Z,47.40
2023-08-22T18:27:45.280Z,46.74
2023-08-22T18:30:12.918Z,47.63
2023-08-22T18:32:39.697Z,47.08
2023-08-22T18:35:07.567Z,46.67
2023-08-22T18:37:37.574Z,46.72
2023-08-22T18:40:13.239Z,47.41
2023-08-22T18:42:41.872Z,47.03
2023-08-22T18:45:09.140Z,47.23
2023-08-22T18:47:36.189Z,47.24
2023-08-22T18:50:04.517Z,48.12
2023-08-22T18:52:33.106Z,47.27
2023-08-22T18:55:00.925Z,47.81
2023-08-22T18:57:28.603Z,47.40
2023-08-22T18:59:55.691Z,47.62
2023-08-22T19:02:22.791Z,47.31
2023-08-22T19:04:52.790Z,47.40
2023-08-22T19:07:19.601Z,47.76
2023-08-22T19:09:46.303Z,47.76
2023-08-22T19:12:13.821Z,48.02
2023-08-22T19:14:40.739Z,47.41
2023-08-22T19:17:07.994Z,48.67
2023-08-22T19:19:34.685Z,48.64
2023-08-22T19:22:01.479Z,48.75
2023-08-22T19:24:28.537Z,47.71
2023-08-22T19:27:01.241Z,48.30
2023-08-22T19:29:31.263Z,47.61
2023-08-22T19:32:17.318Z,48.15
2023-08-22T19:34:49.510Z,48.58
2023-08-22T19:37:16.320Z,47.25
2023-08-22T19:39:48.426Z,47.59
2023-08-22T19:42:15.550Z,48.78
2023-08-22T19:44:42.236Z,47.58
2023-08-22T19:47:09.153Z,47.71
2023-08-22T19:49:39.206Z,48.52
2023-08-22T19:52:07.284Z,48.38
2023-08-22T19:54:34.647Z,47.93
2023-08-22T19:57:01.353Z,48.39
2023-08-22T19:59:28.904Z,49.29
2023-08-22T20:01:56.270Z,48.27
2023-08-22T20:04:23.505Z,48.90
2023-08-22T20:06:50.427Z,49.01
2023-08-22T20:09:17.133Z,49.38
2023-08-22T20:11:44.209Z,49.62
2023-08-22T20:14:10.896Z,49.49
2023-08-22T20:16:38.933Z,49.44
2023-08-22T20:19:05.816Z,49.85
2023-08-22T20:21:32.906Z,49.54
2023-08-22T20:24:02.216Z,48.70
2023-08-22T20:26:29.471Z,49.60
2023-08-22T20:28:56.165Z,49.74
2023-08-22T20:31:23.415Z,49.37
2023-08-22T20:33:50.143Z,49.22
2023-08-22T20:36:16.890Z,49.95
2023-08-22T20:38:43.543Z,48.53
2023-08-22T20:41:18.746Z,47.81
2023-08-22T20:43:57.162Z,48.40
2023-08-22T20:46:24.124Z,47.92
2023-08-22T20:48:54.686Z,47.78
2023-08-22T20:51:21.572Z,48.16
2023-08-22T20:53:51.026Z,48.08
2023-08-22T20:56:20.039Z,48.05
2023-08-22T20:58:49.900Z,48.25
2023-08-22T21:01:17.415Z,48.31
2023-08-22T21:03:46.110Z,48.42
2023-08-22T21:06:14.682Z,48.40
2023-08-22T21:08:41.806Z,48.68
2023-08-22T21:11:08.758Z,48.65
2023-08-22T21:13:35.622Z,48.35
2023-08-22T21:16:13.819Z,48.65
2023-08-22T21:18:50.834Z,48.54
2023-08-22T21:21:28.141Z,48.92
2023-08-22T21:23:58.991Z,48.80
2023-08-22T21:26:25.880Z,49.07
2023-08-22T21:28:52.817Z,48.79
2023-08-22T21:31:23.363Z,49.13
2023-08-22T21:33:50.288Z,49.02
2023-08-22T21:36:18.656Z,49.36
2023-08-22T21:38:45.480Z,49.23
2023-08-22T21:41:12.285Z,49.53
2023-08-22T21:43:39.218Z,49.31
2023-08-22T21:46:08.593Z,49.84
2023-08-22T21:48:43.493Z,49.68
2023-08-22T21:51:10.588Z,49.46
2023-08-22T21:53:46.733Z,49.37
2023-08-22T21:56:16.699Z,49.52
2023-08-22T21:58:46.264Z,49.47
2023-08-22T22:01:14.358Z,49.71
2023-08-22T22:03:46.702Z,49.38
2023-08-22T22:06:13.429Z,49.69
2023-08-22T22:08:42.361Z,49.71
2023-08-22T22:11:09.141Z,49.63
2023-08-22T22:13:41.282Z,49.76
2023-08-22T22:16:15.503Z,49.61
2023-08-22T22:18:42.459Z,49.67
2023-08-22T22:21:09.222Z,49.71
2023-08-22T22:23:43.845Z,49.66
2023-08-22T22:26:15.043Z,49.63
2023-08-22T22:28:42.033Z,50.12
2023-08-22T22:31:11.894Z,49.64
2023-08-22T22:33:39.774Z,50.01
2023-08-22T22:36:07.223Z,50.08
2023-08-22T22:38:35.057Z,50.33
2023-08-22T22:41:03.483Z,49.88
2023-08-22T22:43:36.923Z,50.04
2023-08-22T22:46:04.651Z,50.06
2023-08-22T22:48:31.643Z,50.27
2023-08-22T22:50:58.409Z,50.33
2023-08-22T22:53:25.214Z,50.18
2023-08-22T22:55:52.249Z,50.45
2023-08-22T22:58:19.152Z,50.41
2023-08-22T23:00:46.534Z,50.65
2023-08-22T23:03:18.593Z,50.73
2023-08-22T23:05:45.478Z,50.65
2023-08-22T23:08:12.330Z,50.89
2023-08-22T23:10:39.037Z,50.65
2023-08-22T23:13:09.433Z,50.98
2023-08-22T23:15:36.450Z,51.37
2023-08-22T23:18:03.435Z,51.23
2023-08-22T23:20:31.135Z,51.59
2023-08-22T23:22:57.980Z,51.37
2023-08-22T23:25:24.782Z,51.54
2023-08-22T23:27:51.605Z,51.43
2023-08-22T23:30:18.373Z,51.48
2023-08-22T23:32:46.065Z,51.84
2023-08-22T23:35:21.566Z,51.93
2023-08-22T23:37:50.495Z,52.41
2023-08-22T23:40:29.722Z,52.43
2023-08-22T23:43:01.355Z,52.41
2023-08-22T23:45:31.475Z,52.23
2023-08-22T23:47:59.753Z,51.90
2023-08-22T23:50:31.176Z,52.11
2023-08-22T23:53:00.632Z,52.41
2023-08-22T23:55:27.375Z,52.28
2023-08-22T23:58:01.986Z,51.98
